sensor_id;sensor_type;location;lat;lon;timestamp;P1;durP1;ratioP1;P2;durP2;ratioP2
68647;SDS011;55632;51.962;16.116;2022-07-29T00:00:28;6.53;;;1.90;;
68647;SDS011;55632;51.962;16.116;2022-07-29T00:05:29;8.77;;;1.95;;
68647;SDS011;55632;51.962;16.116;2022-07-29T00:10:30;3.60;;;1.65;;
68647;SDS011;55632;51.962;16.116;2022-07-29T00:15:31;10.30;;;2.08;;
68647;SDS011;55632;51.962;16.116;2022-07-29T00:20:32;3.65;;;2.20;;
68647;SDS011;55632;51.962;16.116;2022-07-29T00:25:33;8.68;;;2.03;;
68647;SDS011;55632;51.962;16.116;2022-07-29T00:30:34;6.47;;;1.92;;
68647;SDS011;55632;51.962;16.116;2022-07-29T00:35:35;6.63;;;2.05;;
68647;SDS011;55632;51.962;16.116;2022-07-29T00:40:45;6.40;;;1.90;;
68647;SDS011;55632;51.962;16.116;2022-07-29T00:45:47;5.10;;;1.80;;
68647;SDS011;55632;51.962;16.116;2022-07-29T00:50:49;75.60;;;42.53;;
68647;SDS011;55632;51.962;16.116;2022-07-29T00:55:51;45.45;;;22.85;;
68647;SDS011;55632;51.962;16.116;2022-07-29T01:00:55;9.38;;;3.10;;
68647;SDS011;55632;51.962;16.116;2022-07-29T01:05:56;7.20;;;3.05;;
68647;SDS011;55632;51.962;16.116;2022-07-29T01:10:57;6.47;;;1.92;;
68647;SDS011;55632;51.962;16.116;2022-07-29T01:16:05;8.15;;;2.50;;
68647;SDS011;55632;51.962;16.116;2022-07-29T01:32:15;9.77;;;2.63;;
68647;SDS011;55632;51.962;16.116;2022-07-29T01:37:24;4.90;;;1.80;;
68647;SDS011;55632;51.962;16.116;2022-07-29T01:42:37;8.40;;;2.23;;
68647;SDS011;55632;51.962;16.116;2022-07-29T01:53:08;5.65;;;2.13;;
68647;SDS011;55632;51.962;16.116;2022-07-29T01:58:11;6.80;;;2.20;;
68647;SDS011;55632;51.962;16.116;2022-07-29T02:03:14;5.18;;;2.08;;
68647;SDS011;55632;51.962;16.116;2022-07-29T02:08:19;7.40;;;2.55;;
68647;SDS011;55632;51.962;16.116;2022-07-29T02:13:20;4.93;;;2.33;;
68647;SDS011;55632;51.962;16.116;2022-07-29T02:18:23;8.00;;;2.53;;
68647;SDS011;55632;51.962;16.116;2022-07-29T02:23:25;6.63;;;2.20;;
68647;SDS011;55632;51.962;16.116;2022-07-29T02:28:28;6.25;;;2.05;;
68647;SDS011;55632;51.962;16.116;2022-07-29T02:33:30;29.38;;;5.10;;
68647;SDS011;55632;51.962;16.116;2022-07-29T02:38:32;9.70;;;2.50;;
68647;SDS011;55632;51.962;16.116;2022-07-29T02:43:53;5.55;;;2.30;;
68647;SDS011;55632;51.962;16.116;2022-07-29T02:59:43;6.82;;;2.17;;
68647;SDS011;55632;51.962;16.116;2022-07-29T03:04:51;16.20;;;2.20;;
68647;SDS011;55632;51.962;16.116;2022-07-29T03:09:54;4.22;;;2.60;;
68647;SDS011;55632;51.962;16.116;2022-07-29T03:14:55;8.73;;;2.92;;
68647;SDS011;55632;51.962;16.116;2022-07-29T03:19:57;15.73;;;2.63;;
68647;SDS011;55632;51.962;16.116;2022-07-29T03:25:07;9.60;;;2.65;;
68647;SDS011;55632;51.962;16.116;2022-07-29T03:30:09;13.38;;;2.75;;
68647;SDS011;55632;51.962;16.116;2022-07-29T03:35:11;18.63;;;3.05;;
68647;SDS011;55632;51.962;16.116;2022-07-29T03:40:13;6.03;;;2.83;;
68647;SDS011;55632;51.962;16.116;2022-07-29T03:45:18;5.65;;;2.45;;
68647;SDS011;55632;51.962;16.116;2022-07-29T03:50:20;8.75;;;2.38;;
68647;SDS011;55632;51.962;16.116;2022-07-29T03:55:22;11.75;;;3.17;;
68647;SDS011;55632;51.962;16.116;2022-07-29T04:00:24;10.80;;;3.00;;
68647;SDS011;55632;51.962;16.116;2022-07-29T04:05:27;7.25;;;2.65;;
68647;SDS011;55632;51.962;16.116;2022-07-29T04:10:27;10.45;;;2.88;;
68647;SDS011;55632;51.962;16.116;2022-07-29T04:15:28;6.00;;;2.90;;
68647;SDS011;55632;51.962;16.116;2022-07-29T04:20:29;12.32;;;3.50;;
68647;SDS011;55632;51.962;16.116;2022-07-29T04:25:30;9.52;;;3.10;;
68647;SDS011;55632;51.962;16.116;2022-07-29T04:30:32;11.70;;;3.30;;
68647;SDS011;55632;51.962;16.116;2022-07-29T04:35:35;14.70;;;3.15;;
68647;SDS011;55632;51.962;16.116;2022-07-29T04:40:37;8.80;;;2.95;;
68647;SDS011;55632;51.962;16.116;2022-07-29T04:45:38;10.90;;;3.03;;
68647;SDS011;55632;51.962;16.116;2022-07-29T04:50:39;9.27;;;2.70;;
68647;SDS011;55632;51.962;16.116;2022-07-29T04:55:40;14.30;;;3.00;;
68647;SDS011;55632;51.962;16.116;2022-07-29T05:00:41;12.82;;;2.83;;
68647;SDS011;55632;51.962;16.116;2022-07-29T05:05:42;11.18;;;2.90;;
68647;SDS011;55632;51.962;16.116;2022-07-29T05:10:43;10.10;;;2.60;;
68647;SDS011;55632;51.962;16.116;2022-07-29T05:15:43;7.25;;;2.40;;
68647;SDS011;55632;51.962;16.116;2022-07-29T05:20:44;7.57;;;2.63;;
68647;SDS011;55632;51.962;16.116;2022-07-29T05:25:45;7.63;;;2.72;;
68647;SDS011;55632;51.962;16.116;2022-07-29T05:30:46;11.80;;;3.00;;
68647;SDS011;55632;51.962;16.116;2022-07-29T05:35:48;6.70;;;2.90;;
68647;SDS011;55632;51.962;16.116;2022-07-29T05:40:49;6.93;;;2.60;;
68647;SDS011;55632;51.962;16.116;2022-07-29T05:45:50;14.65;;;2.83;;
68647;SDS011;55632;51.962;16.116;2022-07-29T05:50:50;10.20;;;2.63;;
68647;SDS011;55632;51.962;16.116;2022-07-29T05:55:51;10.50;;;2.83;;
68647;SDS011;55632;51.962;16.116;2022-07-29T06:00:52;10.63;;;2.53;;
68647;SDS011;55632;51.962;16.116;2022-07-29T06:05:53;8.43;;;2.22;;
68647;SDS011;55632;51.962;16.116;2022-07-29T06:10:54;7.05;;;2.55;;
68647;SDS011;55632;51.962;16.116;2022-07-29T06:15:55;4.50;;;2.47;;
68647;SDS011;55632;51.962;16.116;2022-07-29T06:20:56;5.82;;;2.90;;
68647;SDS011;55632;51.962;16.116;2022-07-29T06:26:01;6.43;;;2.47;;
68647;SDS011;55632;51.962;16.116;2022-07-29T06:31:02;4.68;;;2.15;;
68647;SDS011;55632;51.962;16.116;2022-07-29T06:36:04;4.47;;;2.30;;
68647;SDS011;55632;51.962;16.116;2022-07-29T06:41:05;6.55;;;2.10;;
68647;SDS011;55632;51.962;16.116;2022-07-29T06:46:13;6.78;;;2.25;;
68647;SDS011;55632;51.962;16.116;2022-07-29T06:51:15;8.90;;;2.28;;
68647;SDS011;55632;51.962;16.116;2022-07-29T06:56:16;6.63;;;1.98;;
68647;SDS011;55632;51.962;16.116;2022-07-29T07:01:17;7.28;;;2.20;;
68647;SDS011;55632;51.962;16.116;2022-07-29T07:06:18;5.53;;;2.28;;
68647;SDS011;55632;51.962;16.116;2022-07-29T07:11:19;4.28;;;1.80;;
68647;SDS011;55632;51.962;16.116;2022-07-29T07:16:20;6.35;;;2.08;;
68647;SDS011;55632;51.962;16.116;2022-07-29T07:21:21;137.02;;;21.05;;
68647;SDS011;55632;51.962;16.116;2022-07-29T07:26:22;17.13;;;8.85;;
68647;SDS011;55632;51.962;16.116;2022-07-29T07:31:26;8.30;;;2.60;;
68647;SDS011;55632;51.962;16.116;2022-07-29T07:36:27;3.60;;;2.00;;
68647;SDS011;55632;51.962;16.116;2022-07-29T07:41:28;6.53;;;2.20;;
68647;SDS011;55632;51.962;16.116;2022-07-29T07:46:29;4.57;;;2.00;;
68647;SDS011;55632;51.962;16.116;2022-07-29T07:51:30;3.35;;;1.75;;
68647;SDS011;55632;51.962;16.116;2022-07-29T07:56:31;7.75;;;2.05;;
68647;SDS011;55632;51.962;16.116;2022-07-29T08:01:32;5.80;;;2.10;;
68647;SDS011;55632;51.962;16.116;2022-07-29T08:06:33;9.50;;;2.65;;
68647;SDS011;55632;51.962;16.116;2022-07-29T08:11:36;9.38;;;2.60;;
68647;SDS011;55632;51.962;16.116;2022-07-29T08:16:36;7.53;;;2.83;;
68647;SDS011;55632;51.962;16.116;2022-07-29T08:21:37;6.35;;;2.30;;
68647;SDS011;55632;51.962;16.116;2022-07-29T08:26:39;5.80;;;1.85;;
68647;SDS011;55632;51.962;16.116;2022-07-29T08:31:43;5.40;;;1.90;;
68647;SDS011;55632;51.962;16.116;2022-07-29T08:36:52;3.95;;;1.75;;
68647;SDS011;55632;51.962;16.116;2022-07-29T08:41:57;8.40;;;1.90;;
68647;SDS011;55632;51.962;16.116;2022-07-29T08:46:58;5.38;;;1.50;;
68647;SDS011;55632;51.962;16.116;2022-07-29T08:51:59;5.40;;;1.70;;
68647;SDS011;55632;51.962;16.116;2022-07-29T08:57:00;15.02;;;2.05;;
68647;SDS011;55632;51.962;16.116;2022-07-29T09:02:04;7.88;;;2.38;;
68647;SDS011;55632;51.962;16.116;2022-07-29T09:07:07;7.95;;;2.00;;
68647;SDS011;55632;51.962;16.116;2022-07-29T09:12:14;3.67;;;1.90;;
68647;SDS011;55632;51.962;16.116;2022-07-29T09:17:38;2.58;;;1.63;;
68647;SDS011;55632;51.962;16.116;2022-07-29T09:22:40;4.55;;;1.80;;
68647;SDS011;55632;51.962;16.116;2022-07-29T09:27:41;6.65;;;1.80;;
68647;SDS011;55632;51.962;16.116;2022-07-29T09:32:55;10.82;;;3.17;;
68647;SDS011;55632;51.962;16.116;2022-07-29T09:38:12;3.38;;;1.65;;
68647;SDS011;55632;51.962;16.116;2022-07-29T09:43:14;5.10;;;1.77;;
68647;SDS011;55632;51.962;16.116;2022-07-29T09:48:19;4.55;;;1.58;;
68647;SDS011;55632;51.962;16.116;2022-07-29T09:58:34;6.32;;;1.67;;
68647;SDS011;55632;51.962;16.116;2022-07-29T10:03:53;2.55;;;1.40;;
68647;SDS011;55632;51.962;16.116;2022-07-29T10:08:54;3.53;;;1.60;;
68647;SDS011;55632;51.962;16.116;2022-07-29T10:14:06;5.43;;;1.80;;
68647;SDS011;55632;51.962;16.116;2022-07-29T10:19:07;3.75;;;1.98;;
68647;SDS011;55632;51.962;16.116;2022-07-29T10:24:08;4.40;;;1.73;;
68647;SDS011;55632;51.962;16.116;2022-07-29T10:29:10;5.35;;;1.88;;
68647;SDS011;55632;51.962;16.116;2022-07-29T10:34:13;2.78;;;1.58;;
68647;SDS011;55632;51.962;16.116;2022-07-29T10:44:32;6.97;;;1.98;;
68647;SDS011;55632;51.962;16.116;2022-07-29T10:49:34;8.23;;;1.98;;
68647;SDS011;55632;51.962;16.116;2022-07-29T11:05:16;6.15;;;1.70;;
68647;SDS011;55632;51.962;16.116;2022-07-29T11:10:21;5.72;;;1.48;;
68647;SDS011;55632;51.962;16.116;2022-07-29T11:15:23;5.82;;;1.88;;
68647;SDS011;55632;51.962;16.116;2022-07-29T11:20:31;9.90;;;2.10;;
68647;SDS011;55632;51.962;16.116;2022-07-29T11:25:38;4.53;;;1.70;;
68647;SDS011;55632;51.962;16.116;2022-07-29T11:30:50;8.40;;;1.83;;
68647;SDS011;55632;51.962;16.116;2022-07-29T11:41:26;7.60;;;1.58;;
68647;SDS011;55632;51.962;16.116;2022-07-29T11:46:45;10.50;;;2.38;;
68647;SDS011;55632;51.962;16.116;2022-07-29T11:51:54;9.38;;;2.13;;
68647;SDS011;55632;51.962;16.116;2022-07-29T11:56:57;8.07;;;1.65;;
68647;SDS011;55632;51.962;16.116;2022-07-29T12:01:58;2.85;;;1.70;;
68647;SDS011;55632;51.962;16.116;2022-07-29T12:07:00;6.70;;;1.70;;
68647;SDS011;55632;51.962;16.116;2022-07-29T12:12:01;7.10;;;2.05;;
68647;SDS011;55632;51.962;16.116;2022-07-29T12:17:02;2.63;;;1.73;;
68647;SDS011;55632;51.962;16.116;2022-07-29T12:22:05;6.65;;;1.85;;
68647;SDS011;55632;51.962;16.116;2022-07-29T12:27:06;3.63;;;1.80;;
68647;SDS011;55632;51.962;16.116;2022-07-29T12:32:07;6.50;;;1.92;;
68647;SDS011;55632;51.962;16.116;2022-07-29T12:37:09;8.10;;;2.38;;
68647;SDS011;55632;51.962;16.116;2022-07-29T12:42:13;4.30;;;1.50;;
68647;SDS011;55632;51.962;16.116;2022-07-29T12:47:18;3.78;;;1.67;;
68647;SDS011;55632;51.962;16.116;2022-07-29T12:52:24;6.80;;;1.77;;
68647;SDS011;55632;51.962;16.116;2022-07-29T12:57:29;6.70;;;1.90;;
68647;SDS011;55632;51.962;16.116;2022-07-29T13:02:33;23.15;;;4.45;;
68647;SDS011;55632;51.962;16.116;2022-07-29T13:07:35;8.70;;;1.85;;
68647;SDS011;55632;51.962;16.116;2022-07-29T13:13:23;5.45;;;1.75;;
68647;SDS011;55632;51.962;16.116;2022-07-29T13:18:03;6.97;;;1.67;;
68647;SDS011;55632;51.962;16.116;2022-07-29T13:23:04;10.85;;;2.20;;
68647;SDS011;55632;51.962;16.116;2022-07-29T13:28:07;3.55;;;1.85;;
68647;SDS011;55632;51.962;16.116;2022-07-29T13:33:08;4.20;;;2.05;;
68647;SDS011;55632;51.962;16.116;2022-07-29T13:38:09;6.45;;;1.90;;
68647;SDS011;55632;51.962;16.116;2022-07-29T13:43:10;6.28;;;1.77;;
68647;SDS011;55632;51.962;16.116;2022-07-29T13:48:12;5.22;;;1.90;;
68647;SDS011;55632;51.962;16.116;2022-07-29T13:53:12;11.63;;;2.60;;
68647;SDS011;55632;51.962;16.116;2022-07-29T13:58:13;6.28;;;2.38;;
68647;SDS011;55632;51.962;16.116;2022-07-29T14:03:20;10.88;;;3.40;;
68647;SDS011;55632;51.962;16.116;2022-07-29T14:08:24;5.00;;;1.83;;
68647;SDS011;55632;51.962;16.116;2022-07-29T14:13:25;7.00;;;2.70;;
68647;SDS011;55632;51.962;16.116;2022-07-29T14:18:26;9.75;;;3.35;;
68647;SDS011;55632;51.962;16.116;2022-07-29T14:23:27;7.32;;;2.80;;
68647;SDS011;55632;51.962;16.116;2022-07-29T14:28:28;3.63;;;1.80;;
68647;SDS011;55632;51.962;16.116;2022-07-29T14:33:29;6.70;;;1.65;;
68647;SDS011;55632;51.962;16.116;2022-07-29T14:38:33;10.90;;;5.30;;
68647;SDS011;55632;51.962;16.116;2022-07-29T14:43:37;18.48;;;7.45;;
68647;SDS011;55632;51.962;16.116;2022-07-29T14:48:40;12.55;;;2.30;;
68647;SDS011;55632;51.962;16.116;2022-07-29T14:53:41;5.65;;;2.42;;
68647;SDS011;55632;51.962;16.116;2022-07-29T14:58:42;7.90;;;2.17;;
68647;SDS011;55632;51.962;16.116;2022-07-29T15:03:50;5.78;;;2.08;;
68647;SDS011;55632;51.962;16.116;2022-07-29T15:08:55;4.70;;;2.00;;
68647;SDS011;55632;51.962;16.116;2022-07-29T15:14:00;2.28;;;1.75;;
68647;SDS011;55632;51.962;16.116;2022-07-29T15:19:01;5.00;;;1.80;;
68647;SDS011;55632;51.962;16.116;2022-07-29T15:24:12;5.80;;;1.80;;
68647;SDS011;55632;51.962;16.116;2022-07-29T15:29:15;6.45;;;2.03;;
68647;SDS011;55632;51.962;16.116;2022-07-29T15:34:19;5.35;;;1.73;;
68647;SDS011;55632;51.962;16.116;2022-07-29T15:39:21;9.95;;;2.00;;
68647;SDS011;55632;51.962;16.116;2022-07-29T15:44:22;3.78;;;2.30;;
68647;SDS011;55632;51.962;16.116;2022-07-29T15:49:23;6.45;;;2.63;;
68647;SDS011;55632;51.962;16.116;2022-07-29T15:54:30;11.57;;;2.33;;
68647;SDS011;55632;51.962;16.116;2022-07-29T15:59:32;4.03;;;1.60;;
68647;SDS011;55632;51.962;16.116;2022-07-29T16:04:37;8.48;;;2.38;;
68647;SDS011;55632;51.962;16.116;2022-07-29T16:09:38;7.35;;;2.90;;
68647;SDS011;55632;51.962;16.116;2022-07-29T16:14:39;9.18;;;1.90;;
68647;SDS011;55632;51.962;16.116;2022-07-29T16:19:41;7.25;;;3.35;;
68647;SDS011;55632;51.962;16.116;2022-07-29T16:24:42;5.22;;;2.17;;
68647;SDS011;55632;51.962;16.116;2022-07-29T16:29:44;5.65;;;2.70;;
68647;SDS011;55632;51.962;16.116;2022-07-29T16:34:48;7.97;;;2.47;;
68647;SDS011;55632;51.962;16.116;2022-07-29T16:39:52;6.60;;;2.30;;
68647;SDS011;55632;51.962;16.116;2022-07-29T16:44:53;4.10;;;1.75;;
68647;SDS011;55632;51.962;16.116;2022-07-29T16:49:55;7.10;;;2.33;;
68647;SDS011;55632;51.962;16.116;2022-07-29T16:55:00;4.95;;;2.30;;
68647;SDS011;55632;51.962;16.116;2022-07-29T17:00:07;11.70;;;2.30;;
68647;SDS011;55632;51.962;16.116;2022-07-29T17:05:09;8.80;;;2.03;;
68647;SDS011;55632;51.962;16.116;2022-07-29T17:10:11;3.33;;;1.80;;
68647;SDS011;55632;51.962;16.116;2022-07-29T17:15:13;3.20;;;2.08;;
68647;SDS011;55632;51.962;16.116;2022-07-29T17:20:15;5.18;;;1.77;;
68647;SDS011;55632;51.962;16.116;2022-07-29T17:25:17;7.50;;;1.70;;
68647;SDS011;55632;51.962;16.116;2022-07-29T17:30:25;5.75;;;2.30;;
68647;SDS011;55632;51.962;16.116;2022-07-29T17:35:26;8.25;;;2.00;;
68647;SDS011;55632;51.962;16.116;2022-07-29T17:40:45;4.82;;;1.92;;
68647;SDS011;55632;51.962;16.116;2022-07-29T17:45:46;7.78;;;1.80;;
68647;SDS011;55632;51.962;16.116;2022-07-29T17:50:47;2.97;;;1.50;;
68647;SDS011;55632;51.962;16.116;2022-07-29T17:55:54;6.95;;;2.53;;
68647;SDS011;55632;51.962;16.116;2022-07-29T18:01:02;7.75;;;3.75;;
68647;SDS011;55632;51.962;16.116;2022-07-29T18:06:08;5.22;;;2.00;;
68647;SDS011;55632;51.962;16.116;2022-07-29T18:11:12;4.78;;;2.20;;
68647;SDS011;55632;51.962;16.116;2022-07-29T18:16:14;6.97;;;2.20;;
68647;SDS011;55632;51.962;16.116;2022-07-29T18:21:15;10.60;;;2.47;;
68647;SDS011;55632;51.962;16.116;2022-07-29T18:26:20;7.40;;;2.05;;
68647;SDS011;55632;51.962;16.116;2022-07-29T18:31:23;4.95;;;2.30;;
68647;SDS011;55632;51.962;16.116;2022-07-29T18:36:31;3.27;;;2.10;;
68647;SDS011;55632;51.962;16.116;2022-07-29T18:41:45;10.20;;;2.15;;
68647;SDS011;55632;51.962;16.116;2022-07-29T18:46:47;3.88;;;2.00;;
68647;SDS011;55632;51.962;16.116;2022-07-29T18:51:49;3.88;;;1.92;;
68647;SDS011;55632;51.962;16.116;2022-07-29T18:56:50;8.90;;;1.90;;
68647;SDS011;55632;51.962;16.116;2022-07-29T19:01:51;4.50;;;2.30;;
68647;SDS011;55632;51.962;16.116;2022-07-29T19:06:52;7.47;;;2.03;;
68647;SDS011;55632;51.962;16.116;2022-07-29T19:11:53;5.78;;;2.50;;
68647;SDS011;55632;51.962;16.116;2022-07-29T19:16:58;4.72;;;2.50;;
68647;SDS011;55632;51.962;16.116;2022-07-29T19:22:01;9.77;;;2.08;;
68647;SDS011;55632;51.962;16.116;2022-07-29T19:27:02;4.90;;;2.63;;
68647;SDS011;55632;51.962;16.116;2022-07-29T19:32:03;11.68;;;2.20;;
68647;SDS011;55632;51.962;16.116;2022-07-29T19:37:05;8.75;;;2.00;;
68647;SDS011;55632;51.962;16.116;2022-07-29T19:42:06;5.88;;;2.10;;
68647;SDS011;55632;51.962;16.116;2022-07-29T19:47:07;4.80;;;2.03;;
68647;SDS011;55632;51.962;16.116;2022-07-29T19:52:08;6.55;;;1.90;;
68647;SDS011;55632;51.962;16.116;2022-07-29T19:57:12;8.48;;;2.20;;
68647;SDS011;55632;51.962;16.116;2022-07-29T20:02:13;13.80;;;5.55;;
68647;SDS011;55632;51.962;16.116;2022-07-29T20:07:14;25.50;;;8.55;;
68647;SDS011;55632;51.962;16.116;2022-07-29T20:12:15;62.35;;;25.63;;
68647;SDS011;55632;51.962;16.116;2022-07-29T20:17:16;210.77;;;85.10;;
68647;SDS011;55632;51.962;16.116;2022-07-29T20:22:25;269.67;;;101.43;;
68647;SDS011;55632;51.962;16.116;2022-07-29T20:27:26;225.07;;;92.55;;
68647;SDS011;55632;51.962;16.116;2022-07-29T20:32:27;24.67;;;11.48;;
68647;SDS011;55632;51.962;16.116;2022-07-29T20:37:28;29.95;;;19.92;;
68647;SDS011;55632;51.962;16.116;2022-07-29T20:42:32;10.60;;;9.48;;
68647;SDS011;55632;51.962;16.116;2022-07-29T20:47:33;8.15;;;5.57;;
68647;SDS011;55632;51.962;16.116;2022-07-29T20:52:35;10.63;;;3.97;;
68647;SDS011;55632;51.962;16.116;2022-07-29T20:57:36;10.68;;;2.40;;
68647;SDS011;55632;51.962;16.116;2022-07-29T21:02:37;6.38;;;2.00;;
68647;SDS011;55632;51.962;16.116;2022-07-29T21:07:38;6.35;;;1.80;;
68647;SDS011;55632;51.962;16.116;2022-07-29T21:12:39;7.90;;;1.95;;
68647;SDS011;55632;51.962;16.116;2022-07-29T21:17:41;7.82;;;1.80;;
68647;SDS011;55632;51.962;16.116;2022-07-29T21:22:48;3.33;;;2.00;;
68647;SDS011;55632;51.962;16.116;2022-07-29T21:27:49;6.70;;;2.10;;
68647;SDS011;55632;51.962;16.116;2022-07-29T21:33:09;3.28;;;1.95;;
68647;SDS011;55632;51.962;16.116;2022-07-29T21:38:13;8.57;;;2.47;;
68647;SDS011;55632;51.962;16.116;2022-07-29T21:43:18;7.03;;;1.80;;
68647;SDS011;55632;51.962;16.116;2022-07-29T21:48:19;6.63;;;1.73;;
68647;SDS011;55632;51.962;16.116;2022-07-29T21:53:22;3.10;;;1.60;;
68647;SDS011;55632;51.962;16.116;2022-07-29T21:58:23;6.38;;;1.88;;
68647;SDS011;55632;51.962;16.116;2022-07-29T22:03:24;6.57;;;2.03;;
68647;SDS011;55632;51.962;16.116;2022-07-29T22:08:24;5.78;;;1.60;;
68647;SDS011;55632;51.962;16.116;2022-07-29T22:13:25;5.25;;;2.08;;
68647;SDS011;55632;51.962;16.116;2022-07-29T22:18:26;7.40;;;1.67;;
68647;SDS011;55632;51.962;16.116;2022-07-29T22:23:27;5.53;;;1.60;;
68647;SDS011;55632;51.962;16.116;2022-07-29T22:28:28;8.77;;;2.17;;
68647;SDS011;55632;51.962;16.116;2022-07-29T22:33:29;6.93;;;1.60;;
68647;SDS011;55632;51.962;16.116;2022-07-29T22:38:30;7.05;;;1.90;;
68647;SDS011;55632;51.962;16.116;2022-07-29T22:43:31;4.07;;;1.50;;
68647;SDS011;55632;51.962;16.116;2022-07-29T22:48:32;5.50;;;1.70;;
68647;SDS011;55632;51.962;16.116;2022-07-29T22:53:33;10.48;;;1.80;;
68647;SDS011;55632;51.962;16.116;2022-07-29T22:58:34;7.95;;;2.00;;
68647;SDS011;55632;51.962;16.116;2022-07-29T23:03:35;7.97;;;1.77;;
68647;SDS011;55632;51.962;16.116;2022-07-29T23:08:36;11.02;;;1.90;;
68647;SDS011;55632;51.962;16.116;2022-07-29T23:13:37;9.20;;;3.72;;
68647;SDS011;55632;51.962;16.116;2022-07-29T23:18:39;3.97;;;2.00;;
68647;SDS011;55632;51.962;16.116;2022-07-29T23:23:40;13.23;;;2.58;;
68647;SDS011;55632;51.962;16.116;2022-07-29T23:28:42;22.80;;;3.67;;
68647;SDS011;55632;51.962;16.116;2022-07-29T23:33:46;4.85;;;2.40;;
68647;SDS011;55632;51.962;16.116;2022-07-29T23:38:47;5.65;;;1.60;;
68647;SDS011;55632;51.962;16.116;2022-07-29T23:43:48;6.63;;;1.92;;
68647;SDS011;55632;51.962;16.116;2022-07-29T23:48:49;8.18;;;2.42;;
68647;SDS011;55632;51.962;16.116;2022-07-29T23:53:52;19.02;;;2.03;;
68647;SDS011;55632;51.962;16.116;2022-07-29T23:58:54;6.30;;;1.77;;
